Time,TemperatureF,DewpointF,PressureIn,WindDirection,WindDirectionDegrees,WindSpeedMPH,WindSpeedGustMPH,Humidity,HourlyPrecipIn,Conditions,Clouds,dailyrainin,SoftwareType,DateUTC
2013-07-09 00:10:00,71.3,70.7,30.12,SE,126,0.0,0.0,98,0.00,,,0.79,Wunderground v.1.15,2013-07-09 04:10:00,
2013-07-09 00:20:00,71.2,70.6,30.13,SE,126,0.0,0.0,98,0.00,,,0.00,Wunderground v.1.15,2013-07-09 04:20:00,
2013-07-09 00:30:00,71.2,70.6,30.13,SE,126,0.0,0.0,98,0.00,,,0.00,Wunderground v.1.15,2013-07-09 04:30:00,
2013-07-09 00:40:00,71.2,70.6,30.13,SE,126,0.0,1.0,98,0.00,,,0.00,Wunderground v.1.15,2013-07-09 04:40:00,
2013-07-09 00:50:00,71.2,70.6,30.13,SE,126,0.0,1.0,98,0.00,,,0.00,Wunderground v.1.15,2013-07-09 04:50:00,
2013-07-09 01:00:00,71.1,70.5,30.13,SE,126,0.0,0.0,98,0.00,,,0.00,Wunderground v.1.15,2013-07-09 05:00:00,
2013-07-09 01:10:00,70.9,70.3,30.13,SE,126,0.0,0.0,98,0.00,,,0.00,Wunderground v.1.15,2013-07-09 05:10:00,
2013-07-09 01:20:00,70.7,70.1,30.13,SE,126,0.0,0.0,98,0.00,,,0.00,Wunderground v.1.15,2013-07-09 05:20:00,
2013-07-09 01:30:00,70.6,70.0,30.12,SE,126,0.0,0.0,98,0.00,,,0.00,Wunderground v.1.15,2013-07-09 05:30:00,
2013-07-09 01:40:00,70.4,69.8,30.11,SE,126,0.0,1.0,98,0.00,,,0.00,Wunderground v.1.15,2013-07-09 05:40:00,
2013-07-09 01:50:00,70.7,70.4,30.11,SE,126,0.0,1.0,99,0.00,,,0.00,Wunderground v.1.15,2013-07-09 05:50:00,
2013-07-09 02:00:00,70.9,70.6,30.11,SE,126,0.0,0.0,99,0.00,,,0.00,Wunderground v.1.15,2013-07-09 06:00:00,
2013-07-09 02:10:00,70.8,70.5,30.10,SE,126,0.0,0.0,99,0.00,,,0.00,Wunderground v.1.15,2013-07-09 06:10:00,
2013-07-09 02:20:00,70.7,70.4,30.11,SE,126,0.0,0.0,99,0.00,,,0.00,Wunderground v.1.15,2013-07-09 06:20:00,
2013-07-09 02:30:00,70.7,70.4,30.11,SE,126,0.0,0.0,99,0.00,,,0.00,Wunderground v.1.15,2013-07-09 06:30:00,
2013-07-09 02:40:00,70.5,70.2,30.10,SE,126,0.0,0.0,99,0.00,,,0.00,Wunderground v.1.15,2013-07-09 06:40:00,
2013-07-09 02:50:00,70.4,69.8,30.10,SE,126,0.0,0.0,98,0.00,,,0.00,Wunderground v.1.15,2013-07-09 06:50:00,
2013-07-09 03:00:00,70.3,69.7,30.10,SE,126,0.0,0.0,98,0.00,,,0.00,Wunderground v.1.15,2013-07-09 07:00:00,
2013-07-09 03:10:00,70.3,70.0,30.10,SE,126,0.0,0.0,99,0.00,,,0.00,Wunderground v.1.15,2013-07-09 07:10:00,
2013-07-09 03:20:00,70.3,70.0,30.10,SE,126,0.0,0.0,99,0.00,,,0.00,Wunderground v.1.15,2013-07-09 07:20:00,
2013-07-09 03:30:00,70.2,69.9,30.10,SE,126,0.0,0.0,99,0.00,,,0.00,Wunderground v.1.15,2013-07-09 07:30:00,
2013-07-09 03:40:00,70.2,69.9,30.11,SE,126,0.0,2.0,99,0.00,,,0.00,Wunderground v.1.15,2013-07-09 07:40:00,
2013-07-09 04:00:00,70.2,69.9,30.11,SE,126,0.0,0.0,99,0.00,,,0.00,Wunderground v.1.15,2013-07-09 08:00:00,
2013-07-09 04:10:00,70.2,69.9,30.11,SE,126,0.0,0.0,99,0.00,,,0.00,Wunderground v.1.15,2013-07-09 08:10:00,
2013-07-09 04:20:00,70.3,70.0,30.11,SE,126,0.0,0.0,99,0.00,,,0.00,Wunderground v.1.15,2013-07-09 08:20:00,
2013-07-09 04:30:00,70.2,69.9,30.11,SE,126,0.0,0.0,99,0.00,,,0.00,Wunderground v.1.15,2013-07-09 08:30:00,
2013-07-09 04:40:00,70.2,69.9,30.11,SE,126,0.0,0.0,99,0.00,,,0.00,Wunderground v.1.15,2013-07-09 08:40:00,
2013-07-09 04:50:00,70.1,69.8,30.11,SE,126,0.0,0.0,99,0.00,,,0.00,Wunderground v.1.15,2013-07-09 08:50:00,
2013-07-09 05:00:00,69.9,69.6,30.11,SE,126,0.0,0.0,99,0.00,,,0.00,Wunderground v.1.15,2013-07-09 09:00:00,
2013-07-09 05:10:00,69.7,69.4,30.11,SE,126,0.0,0.0,99,0.00,,,0.00,Wunderground v.1.15,2013-07-09 09:10:00,
2013-07-09 05:20:00,69.6,69.3,30.11,SE,126,0.0,0.0,99,0.00,,,0.00,Wunderground v.1.15,2013-07-09 09:20:00,
2013-07-09 05:30:00,69.6,69.3,30.11,SE,126,0.0,0.0,99,0.00,,,0.00,Wunderground v.1.15,2013-07-09 09:30:00,
2013-07-09 05:40:00,69.6,69.3,30.11,SE,126,0.0,0.0,99,0.00,,,0.00,Wunderground v.1.15,2013-07-09 09:40:00,
2013-07-09 05:50:00,69.5,69.2,30.12,SE,126,0.0,0.0,99,0.00,,,0.00,Wunderground v.1.15,2013-07-09 09:50:00,
2013-07-09 06:00:00,69.6,69.3,30.12,SE,126,0.0,0.0,99,0.00,,,0.00,Wunderground v.1.15,2013-07-09 10:00:00,
2013-07-09 06:10:00,69.5,69.2,30.12,SE,126,0.0,0.0,99,0.00,,,0.00,Wunderground v.1.15,2013-07-09 10:10:00,
2013-07-09 06:20:00,69.5,69.2,30.12,SE,126,0.0,0.0,99,0.00,,,0.00,Wunderground v.1.15,2013-07-09 10:20:00,
2013-07-09 06:30:00,69.5,69.2,30.12,SE,126,0.0,0.0,99,0.00,,,0.00,Wunderground v.1.15,2013-07-09 10:30:00,
2013-07-09 06:40:00,69.6,69.3,30.12,SE,126,0.0,0.0,99,0.00,,,0.00,Wunderground v.1.15,2013-07-09 10:40:00,
2013-07-09 06:50:00,69.6,69.3,30.12,SE,126,0.0,0.0,99,0.00,,,0.00,Wunderground v.1.15,2013-07-09 10:50:00,
2013-07-09 07:00:00,69.7,69.4,30.12,SE,126,0.0,0.0,99,0.00,,,0.00,Wunderground v.1.15,2013-07-09 11:00:00,
2013-07-09 07:10:00,69.9,69.6,30.12,SE,126,0.0,0.0,99,0.00,,,0.00,Wunderground v.1.15,2013-07-09 11:10:00,
2013-07-09 07:20:00,70.0,69.7,30.13,SE,126,0.0,0.0,99,0.00,,,0.00,Wunderground v.1.15,2013-07-09 11:20:00,
2013-07-09 07:30:00,70.1,69.8,30.13,SE,126,0.0,0.0,99,0.00,,,0.00,Wunderground v.1.15,2013-07-09 11:30:00,
2013-07-09 07:40:00,70.3,70.0,30.13,SE,126,0.0,0.0,99,0.00,,,0.00,Wunderground v.1.15,2013-07-09 11:40:00,
2013-07-09 07:50:00,70.5,70.2,30.13,SE,126,0.0,0.0,99,0.00,,,0.00,Wunderground v.1.15,2013-07-09 11:50:00,
2013-07-09 08:00:00,70.9,70.6,30.13,SE,126,0.0,0.0,99,0.00,,,0.00,Wunderground v.1.15,2013-07-09 12:00:00,
2013-07-09 08:10:00,71.1,70.8,30.13,SE,126,0.0,0.0,99,0.00,,,0.00,Wunderground v.1.15,2013-07-09 12:10:00,
2013-07-09 08:20:00,71.3,71.0,30.13,SE,126,0.0,0.0,99,0.00,,,0.00,Wunderground v.1.15,2013-07-09 12:20:00,
2013-07-09 08:30:00,71.5,71.2,30.13,SE,126,0.0,0.0,99,0.00,,,0.00,Wunderground v.1.15,2013-07-09 12:30:00,
2013-07-09 08:40:00,71.6,71.3,30.13,SE,126,0.0,0.0,99,0.00,,,0.00,Wunderground v.1.15,2013-07-09 12:40:00,
2013-07-09 08:50:00,71.7,71.4,30.13,SE,126,0.0,1.0,99,0.00,,,0.00,Wunderground v.1.15,2013-07-09 12:50:00,
2013-07-09 09:00:00,72.1,71.8,30.13,SE,126,1.0,1.0,99,0.00,,,0.00,Wunderground v.1.15,2013-07-09 13:00:00,
2013-07-09 09:10:00,72.7,72.4,30.14,SE,126,1.0,1.0,99,0.00,,,0.00,Wunderground v.1.15,2013-07-09 13:10:00,
2013-07-09 09:20:00,73.7,73.1,30.14,WSW,250,0.0,0.0,98,0.00,,,0.00,Wunderground v.1.15,2013-07-09 13:20:00,
2013-07-09 09:30:00,75.3,73.5,30.13,NNW,329,0.0,1.0,94,0.00,,,0.00,Wunderground v.1.15,2013-07-09 13:30:00,
2013-07-09 09:40:00,76.5,74.6,30.13,NNW,329,0.0,0.0,94,0.00,,,0.00,Wunderground v.1.15,2013-07-09 13:40:00,
2013-07-09 09:50:00,77.2,73.4,30.13,NNW,329,0.0,2.0,88,0.00,,,0.00,Wunderground v.1.15,2013-07-09 13:50:00,
2013-07-09 10:00:00,77.5,72.6,30.13,SSW,209,1.0,1.0,85,0.00,,,0.00,Wunderground v.1.15,2013-07-09 14:00:00,
2013-07-09 10:10:00,78.5,73.3,30.13,SSW,209,0.0,1.0,84,0.00,,,0.00,Wunderground v.1.15,2013-07-09 14:10:00,
2013-07-09 10:20:00,79.2,73.6,30.13,SW,214,1.0,1.0,83,0.00,,,0.00,Wunderground v.1.15,2013-07-09 14:20:00,
2013-07-09 10:30:00,80.3,73.6,30.13,SW,214,0.0,0.0,80,0.00,,,0.00,Wunderground v.1.15,2013-07-09 14:30:00,
2013-07-09 10:40:00,80.9,75.2,30.13,SW,214,0.0,3.0,83,0.00,,,0.00,Wunderground v.1.15,2013-07-09 14:40:00,
2013-07-09 10:50:00,80.7,72.8,30.13,SW,214,1.0,1.0,77,0.00,,,0.00,Wunderground v.1.15,2013-07-09 14:50:00,
2013-07-09 11:00:00,80.4,73.7,30.13,SW,214,1.0,1.0,80,0.00,,,0.00,Wunderground v.1.15,2013-07-09 15:00:00,
2013-07-09 11:10:00,81.0,73.9,30.13,SW,214,0.0,0.0,79,0.00,,,0.00,Wunderground v.1.15,2013-07-09 15:10:00,
2013-07-09 11:20:00,81.6,74.5,30.13,SSE,158,1.0,1.0,79,0.00,,,0.00,Wunderground v.1.15,2013-07-09 15:20:00,
2013-07-09 11:30:00,81.8,74.3,30.13,SSE,153,1.0,1.0,78,0.00,,,0.00,Wunderground v.1.15,2013-07-09 15:30:00,
2013-07-09 11:40:00,82.0,74.1,30.13,SSW,205,1.0,1.0,77,0.00,,,0.00,Wunderground v.1.15,2013-07-09 15:40:00,
2013-07-09 11:50:00,82.1,75.7,30.13,SSW,205,1.0,1.0,81,0.00,,,0.00,Wunderground v.1.15,2013-07-09 15:50:00,
2013-07-09 12:00:00,82.2,75.4,30.13,SE,136,1.0,1.0,80,0.00,,,0.00,Wunderground v.1.15,2013-07-09 16:00:00,
2013-07-09 12:10:00,82.5,74.9,30.13,SE,136,2.0,3.0,78,0.00,,,0.00,Wunderground v.1.15,2013-07-09 16:10:00,
2013-07-09 12:20:00,83.2,75.2,30.13,ESE,109,2.0,2.0,77,0.00,,,0.00,Wunderground v.1.15,2013-07-09 16:20:00,
2013-07-09 12:30:00,83.4,75.0,30.13,SSW,210,1.0,1.0,76,0.00,,,0.00,Wunderground v.1.15,2013-07-09 16:30:00,
2013-07-09 12:40:00,84.3,74.3,30.13,North,349,1.0,1.0,72,0.00,,,0.00,Wunderground v.1.15,2013-07-09 16:40:00,
2013-07-09 12:50:00,84.2,73.3,30.13,ENE,61,1.0,1.0,70,0.00,,,0.00,Wunderground v.1.15,2013-07-09 16:50:00,
2013-07-09 13:00:00,84.2,72.5,30.13,SSE,150,1.0,1.0,68,0.00,,,0.00,Wunderground v.1.15,2013-07-09 17:00:00,
2013-07-09 13:10:00,84.5,73.6,30.12,West,275,0.0,1.0,70,0.00,,,0.00,Wunderground v.1.15,2013-07-09 17:10:00,
2013-07-09 13:20:00,84.6,74.6,30.12,West,275,0.0,0.0,72,0.00,,,0.00,Wunderground v.1.15,2013-07-09 17:20:00,
2013-07-09 13:30:00,84.8,75.2,30.12,SW,221,1.0,1.0,73,0.00,,,0.00,Wunderground v.1.15,2013-07-09 17:30:00,
2013-07-09 13:40:00,84.7,73.4,30.12,SSW,192,1.0,5.0,69,0.00,,,0.00,Wunderground v.1.15,2013-07-09 17:40:00,
2013-07-09 13:50:00,85.5,73.3,30.12,ESE,102,0.0,5.0,67,0.00,,,0.00,Wunderground v.1.15,2013-07-09 17:50:00,
2013-07-09 14:00:00,85.8,73.6,30.12,South,175,1.0,1.0,67,0.00,,,0.00,Wunderground v.1.15,2013-07-09 18:00:00,
2013-07-09 14:10:00,85.6,73.8,30.11,NW,323,1.0,1.0,68,0.00,,,0.00,Wunderground v.1.15,2013-07-09 18:10:00,
2013-07-09 14:20:00,85.0,74.5,30.11,WNW,289,1.0,1.0,71,0.00,,,0.00,Wunderground v.1.15,2013-07-09 18:20:00,
2013-07-09 14:30:00,84.3,73.9,30.11,ENE,59,1.0,1.0,71,0.00,,,0.00,Wunderground v.1.15,2013-07-09 18:30:00,
2013-07-09 14:40:00,84.2,73.8,30.10,ENE,59,0.0,5.0,71,0.00,,,0.00,Wunderground v.1.15,2013-07-09 18:40:00,
2013-07-09 14:50:00,84.2,74.2,30.10,ENE,59,0.0,5.0,72,0.00,,,0.00,Wunderground v.1.15,2013-07-09 18:50:00,
2013-07-09 15:00:00,83.6,74.0,30.09,ENE,59,0.0,0.0,73,0.00,,,0.00,Wunderground v.1.15,2013-07-09 19:00:00,
2013-07-09 15:10:00,83.2,74.8,30.09,ENE,59,0.0,0.0,76,0.00,,,0.00,Wunderground v.1.15,2013-07-09 19:10:00,
2013-07-09 15:20:00,83.4,75.4,30.09,ENE,59,0.0,0.0,77,0.00,,,0.00,Wunderground v.1.15,2013-07-09 19:20:00,
2013-07-09 15:30:00,83.5,76.3,30.09,East,82,0.0,0.0,79,0.00,,,0.00,Wunderground v.1.15,2013-07-09 19:30:00,
2013-07-09 15:40:00,83.8,75.0,30.09,SW,234,0.0,4.0,75,0.00,,,0.00,Wunderground v.1.15,2013-07-09 19:40:00,
2013-07-09 15:50:00,84.0,76.4,30.08,South,177,0.0,4.0,78,0.00,,,0.00,Wunderground v.1.15,2013-07-09 19:50:00,
2013-07-09 16:00:00,83.5,73.9,30.08,SSE,161,1.0,1.0,73,0.00,,,0.00,Wunderground v.1.15,2013-07-09 20:00:00,
2013-07-09 16:10:00,83.3,74.9,30.08,SSE,163,1.0,1.0,76,0.00,,,0.00,Wunderground v.1.15,2013-07-09 20:10:00,
2013-07-09 16:20:00,83.4,75.8,30.07,SSE,163,0.0,0.0,78,0.00,,,0.00,Wunderground v.1.15,2013-07-09 20:20:00,
2013-07-09 16:30:00,83.4,75.0,30.07,South,180,1.0,3.0,76,0.00,,,0.00,Wunderground v.1.15,2013-07-09 20:30:00,
2013-07-09 16:40:00,83.7,75.3,30.06,SE,136,1.0,1.0,76,0.00,,,0.00,Wunderground v.1.15,2013-07-09 20:40:00,
2013-07-09 16:50:00,83.9,75.5,30.06,SE,128,1.0,2.0,76,0.00,,,0.00,Wunderground v.1.15,2013-07-09 20:50:00,
2013-07-09 17:00:00,83.7,74.5,30.06,ESE,123,1.0,1.0,74,0.00,,,0.00,Wunderground v.1.15,2013-07-09 21:00:00,
2013-07-09 17:10:00,83.8,74.2,30.05,South,184,2.0,2.0,73,0.00,,,0.00,Wunderground v.1.15,2013-07-09 21:10:00,
2013-07-09 17:20:00,83.9,74.7,30.05,SE,135,1.0,1.0,74,0.00,,,0.00,Wunderground v.1.15,2013-07-09 21:20:00,
2013-07-09 17:30:00,84.7,74.7,30.05,ESE,121,1.0,1.0,72,0.00,,,0.00,Wunderground v.1.15,2013-07-09 21:30:00,
2013-07-09 17:40:00,85.4,74.5,30.05,South,172,2.0,2.0,70,0.00,,,0.00,Wunderground v.1.15,2013-07-09 21:40:00,
2013-07-09 17:50:00,85.4,74.5,30.05,South,187,2.0,2.0,70,0.00,,,0.00,Wunderground v.1.15,2013-07-09 21:50:00,
2013-07-09 18:00:00,85.3,74.8,30.04,South,189,2.0,3.0,71,0.00,,,0.00,Wunderground v.1.15,2013-07-09 22:00:00,
2013-07-09 18:10:00,85.4,74.9,30.04,ESE,114,1.0,1.0,71,0.00,,,0.00,Wunderground v.1.15,2013-07-09 22:10:00,
2013-07-09 18:20:00,85.4,76.2,30.04,East,98,1.0,2.0,74,0.00,,,0.00,Wunderground v.1.15,2013-07-09 22:20:00,
2013-07-09 18:30:00,85.2,75.6,30.03,SE,142,1.0,2.0,73,0.00,,,0.00,Wunderground v.1.15,2013-07-09 22:30:00,
2013-07-09 18:40:00,84.7,75.5,30.03,SE,146,2.0,2.0,74,0.00,,,0.00,Wunderground v.1.15,2013-07-09 22:40:00,
2013-07-09 18:50:00,84.1,74.9,30.03,SSE,165,1.0,1.0,74,0.00,,,0.00,Wunderground v.1.15,2013-07-09 22:50:00,
2013-07-09 19:00:00,83.6,74.8,30.04,South,184,1.0,1.0,75,0.00,,,0.00,Wunderground v.1.15,2013-07-09 23:00:00,
2013-07-09 19:10:00,83.2,75.2,30.04,South,185,1.0,1.0,77,0.00,,,0.00,Wunderground v.1.15,2013-07-09 23:10:00,
2013-07-09 19:20:00,82.8,74.8,30.04,East,88,0.0,1.0,77,0.00,,,0.00,Wunderground v.1.15,2013-07-09 23:20:00,
2013-07-09 19:30:00,82.6,75.0,30.04,East,88,0.0,0.0,78,0.00,,,0.00,Wunderground v.1.15,2013-07-09 23:30:00,
2013-07-09 19:40:00,82.2,75.4,30.04,East,88,0.0,7.0,80,0.00,,,0.00,Wunderground v.1.15,2013-07-09 23:40:00,
2013-07-09 19:50:00,81.9,73.2,30.04,East,88,0.0,7.0,75,0.00,,,0.00,Wunderground v.1.15,2013-07-09 23:50:00,
2013-07-09 20:00:00,81.7,73.8,30.05,East,88,0.0,0.0,77,0.00,,,0.00,Wunderground v.1.15,2013-07-10 00:00:00,
2013-07-09 20:10:00,81.0,73.5,30.05,East,88,0.0,0.0,78,0.00,,,0.00,Wunderground v.1.15,2013-07-10 00:10:00,
2013-07-09 20:20:00,80.6,73.1,30.05,East,88,0.0,0.0,78,0.00,,,0.00,Wunderground v.1.15,2013-07-10 00:20:00,
2013-07-09 20:30:00,80.2,72.7,30.05,East,88,0.0,0.0,78,0.00,,,0.00,Wunderground v.1.15,2013-07-10 00:30:00,
2013-07-09 20:40:00,79.6,72.9,30.05,East,88,0.0,2.0,80,0.00,,,0.00,Wunderground v.1.15,2013-07-10 00:40:00,
2013-07-09 20:50:00,79.2,73.2,30.05,East,88,0.0,2.0,82,0.00,,,0.00,Wunderground v.1.15,2013-07-10 00:50:00,
2013-07-09 21:00:00,78.8,72.8,30.05,East,88,0.0,0.0,82,0.00,,,0.00,Wunderground v.1.15,2013-07-10 01:00:00,
2013-07-09 21:10:00,78.3,72.7,30.06,East,88,0.0,0.0,83,0.00,,,0.00,Wunderground v.1.15,2013-07-10 01:10:00,
2013-07-09 21:20:00,77.9,73.0,30.06,East,88,0.0,0.0,85,0.00,,,0.00,Wunderground v.1.15,2013-07-10 01:20:00,
2013-07-09 21:30:00,77.5,73.3,30.06,East,88,0.0,0.0,87,0.00,,,0.00,Wunderground v.1.15,2013-07-10 01:30:00,
2013-07-09 21:40:00,77.2,73.4,30.06,East,88,0.0,1.0,88,0.00,,,0.00,Wunderground v.1.15,2013-07-10 01:40:00,
2013-07-09 21:50:00,77.0,73.5,30.06,East,88,0.0,1.0,89,0.00,,,0.00,Wunderground v.1.15,2013-07-10 01:50:00,
2013-07-09 22:00:00,77.0,73.8,30.06,East,88,0.0,0.0,90,0.00,,,0.00,Wunderground v.1.15,2013-07-10 02:00:00,
2013-07-09 22:10:00,77.1,74.3,30.07,East,88,0.0,0.0,91,0.00,,,0.00,Wunderground v.1.15,2013-07-10 02:10:00,
2013-07-09 22:20:00,77.1,74.3,30.07,East,88,0.0,0.0,91,0.00,,,0.00,Wunderground v.1.15,2013-07-10 02:20:00,
2013-07-09 22:30:00,77.0,74.2,30.07,East,88,0.0,0.0,91,0.00,,,0.00,Wunderground v.1.15,2013-07-10 02:30:00,
2013-07-09 22:40:00,76.8,74.0,30.07,East,88,0.0,1.0,91,0.00,,,0.00,Wunderground v.1.15,2013-07-10 02:40:00,
2013-07-09 22:50:00,76.6,74.1,30.07,East,88,0.0,1.0,92,0.00,,,0.00,Wunderground v.1.15,2013-07-10 02:50:00,
2013-07-09 23:00:00,76.6,74.4,30.07,East,88,0.0,1.0,93,0.00,,,0.00,Wunderground v.1.15,2013-07-10 03:00:00,
2013-07-09 23:10:00,76.8,74.3,30.07,East,88,0.0,0.0,92,0.00,,,0.00,Wunderground v.1.15,2013-07-10 03:10:00,
2013-07-09 23:20:00,76.9,74.4,30.06,East,88,0.0,0.0,92,0.00,,,0.00,Wunderground v.1.15,2013-07-10 03:20:00,
2013-07-09 23:30:00,77.0,74.5,30.06,East,88,0.0,0.0,92,0.00,,,0.00,Wunderground v.1.15,2013-07-10 03:30:00,
2013-07-09 23:40:00,77.1,74.9,30.06,East,88,0.0,0.0,93,0.00,,,0.00,Wunderground v.1.15,2013-07-10 03:40:00,
2013-07-09 23:50:00,77.0,74.8,30.06,SE,132,1.0,1.0,93,0.00,,,0.00,Wunderground v.1.15,2013-07-10 03:50:00,